• Join FlightAware (Why Join?)
  • Login
  • US Flag 
11:29AM EST


 

Airport Tracker/Info


-or-


 

Live Flight TrackerFlight Track Log ✈ SKW4664 ✈ 29-Apr-2013 ✈ KMSP - KFSD

Flight Track Log - Related Links

Times and Time Zones

All times are in EDT time to prevent confusion due to time zone crossing. See the SKW4664 flight status page for this flight to view local times or setup timezone preferences in your user account.

Time Position Orientation Groundspeed Altitude Reporting Facility
EDT Latitude Longitude Course Direction KTS MPH feet Rate Location/Type
10:34AM 44.8833 -93.2833 235° Southwest 186 214 2,600  Level Minneapolis TRACON
10:35AM 44.8850 -93.3094 275° West 200 230 2,900 1,920 Climbing Minneapolis Center
10:36AM 44.8650 -93.4039 253° West 261 300 5,400 3,120 Climbing Minneapolis Center
10:37AM 44.6340 -93.7321 235° Southwest  Level FlightAware Approximate
10:37AM 44.8258 -93.5153 244° Southwest 276 318 9,300  Level Minneapolis Center
10:38AM 44.5634 -93.8554 230° Southwest  Level FlightAware Approximate
10:38AM 44.7697 -93.5900 223° Southwest 281 323 11,900  Level Minneapolis Center
10:39AM 44.4932 -93.9803 235° Southwest  Level FlightAware Approximate
10:39AM 44.7128 -93.6683 224° Southwest 292 336 14,300  Level Minneapolis Center
10:40AM 44.4446 -94.0775 235° Southwest  Level FlightAware Approximate
10:40AM 44.6550 -93.7467 224° Southwest 290 334 16,800  Level Minneapolis Center
10:41AM 44.5936 -93.8306 224° Southwest 316 364 17,000 720 Climbing Minneapolis Center
10:42AM 44.5336 -93.9389 232° Southwest 354 407 18,300 1,560 Climbing Minneapolis Center
10:43AM 44.4653 -94.0697 234° Southwest 348 400 20,300 1,560 Climbing Minneapolis Center
10:44AM 44.4069 -94.1825 234° Southwest 356 410 21,600 1,020 Climbing Minneapolis Center
10:45AM 44.3450 -94.2975 233° Southwest 368 423 22,500 720 Climbing Minneapolis Center
10:46AM 44.2817 -94.4175 234° Southwest 382 440 23,200 660 Climbing Minneapolis Center
10:47AM 44.2156 -94.5408 233° Southwest 395 455 23,900 360 Climbing Minneapolis Center
10:48AM 44.1372 -94.6869 233° Southwest 404 465 24,000  Climbing Minneapolis Center
10:49AM 44.0703 -94.8114 233° Southwest 403 464 24,000  Level Minneapolis Center
10:50AM 44.0042 -94.9336 233° Southwest 398 458 24,000  Level Minneapolis Center
10:51AM 43.9383 -95.0544 233° Southwest 394 453 24,000  Level Minneapolis Center
10:52AM 43.8728 -95.1731 233° Southwest 389 448 24,000 -60 Level Minneapolis Center
10:53AM 43.8200 -95.2689 233° Southwest 388 447 23,900 -1,380 Descending Minneapolis Center
10:55AM 43.7267 -95.4364 232° Southwest 391 450 21,000 -2,340 Descending Minneapolis Center
10:56AM 43.6519 -95.5803 234° Southwest 386 444 18,600 -2,220 Descending Minneapolis Center
10:57AM 43.6492 -95.7164 268° West 359 413 16,500 -2,040 Descending Minneapolis Center
10:58AM 43.6492 -95.8522 270° West 355 409 14,500 -1,980 Descending Minneapolis Center
10:59AM 43.6500 -95.9811 271° West 342 394 12,500 -1,620 Descending Minneapolis Center
11:00AM 43.6358 -96.0961 260° West 313 360 11,200 -1,320 Descending Minneapolis Center
11:01AM 43.6228 -96.1936 260° West 287 330 9,900 -1,320 Descending Minneapolis Center
11:02AM 43.6114 -96.2889 261° West 268 308 8,500 -1,500 Descending Minneapolis Center
11:03AM 43.5958 -96.4072 260° West 262 302 6,800 -1,140 Descending Minneapolis Center
11:04AM 43.5836 -96.5033 260° West 258 297 6,000 -780 Descending Minneapolis Center
11:05AM 43.5658 -96.6222 258° West 260 299 5,100 -780 Descending Minneapolis Center
11:06AM 43.5228 -96.6867 227° Southwest 238 274 4,500 -600 Descending Minneapolis Center